Terminal Aerodrome Forecast
Issued by NWS Wilmington, NC

Home | Current Version | Previous Version | Text Only | Print | Product List | Glossary On
Versions: 1 2 3 4 5 6 7 8 9 10 11 12 13 14 15 16 17 18 19
000
FTUS42 KILM 282325
TAFLBT
TAF
KLBT 282325Z 2900/2924 07010G17KT 5SM RA BR SCT035 BKN050 BKN100
     FM290900 03002KT 2SM BR BKN010
     FM291300 05006KT P6SM FEW020 SCT035=

USA.gov is the U.S. government's official web portal to all federal, state and local government web resources and services.